Terminal Aerodrome Forecast
Issued by NWS

Home | Current Version | Previous Version | Graphics & Text | Print | Product List | Glossary On
Versions: 1 2 3 4 5 6 7 8 9 10 11 12 13 14 15 16 17
000
FTUS43 KMPX 181100 RRA
TAFRNH
TAF
KRNH 181139Z 1812/1912 13005KT 6SM BR OVC009
     FM181700 23006KT 6SM -SHRA BR OVC020
      TEMPO 1820/1824 2SM +TSRA BKN014CB
     FM190300 25003KT P6SM BKN040
      TEMPO 1908/1912 3SM BR BKN008=

USA.gov is the U.S. government's official web portal to all federal, state and local government web resources and services.